Weather observations for the past three days for
Rolla / Vichy, Rolla National Airport
Metric (Imperial)
Date Time (cdt) Wind (kph) Vis. (km) Weather Sky Cond. Temperature (ºC) Relative Humidity Wind Chill (°C) Heat Index (°C) Pressure Precipitation (cm)
Air Dwpt 6 hour altimeter (cm) sea level (mb) 1 hr 3 hr 6 hr
Max. Min.
10 06:53 N 13 16.09 Overcast FEW070 OVC090 13.3 10.6 16.7 13.3 84% 76.33 1016.8
10 05:53 N 13 16.09 Light Rain OVC085 13.9 11.1 83% 76.25 1015.7
10 04:53 N 11 16.09 Overcast BKN095 OVC110 14.4 13.3 93% 76.15 1014.3
10 03:53 W 15 16.09 Mostly Cloudy BKN090 14.4 13.9 97% 76.17 1014.8
10 02:53 Calm 16.09 Mostly Cloudy BKN090 BKN110 15 13.9 93% 76.05 1013.1
10 01:53 NW 6 16.09 Overcast BKN100 OVC110 16.1 13.3 84% 76.05 1013.2
10 00:53 Calm 16.09 Mostly Cloudy BKN100 16.1 13.9 23.9 15.6 87% 76.05 1013.0
09 23:53 Calm 16.09 Mostly Cloudy BKN100 16.1 13.9 87% 75.97 1012.0
09 22:53 N 7 16.09 Overcast OVC100 18.3 12.2 68% 75.95 1011.6
09 21:53 S 13 16.09 Overcast OVC110 17.8 10.6 63% 75.84 1010.5
09 20:53 S 11 16.09 Fair CLR 15.6 10.6 72% 75.77 1009.7
09 19:53 SW 7 16.09 Fair CLR 18.3 11.7 66% 75.72 1009.1
09 18:53 SW 9 16.09 Fair CLR 23.9 12.8 26.1 23.9 50% 25 75.72 1008.7
09 17:53 W 13 16.09 Fair CLR 25.6 8.3 33% 26 75.72 1008.5
09 16:53 W 15 16.09 Fair CLR 25.6 8.9 35% 26 75.72 1008.6
09 15:53 W 17 16.09 Fair CLR 25.6 9.4 36% 26 75.74 1008.9
09 14:53 W 19 G 31 16.09 Fair CLR 25.6 11.7 42% 26 75.77 1009.4
09 13:53 W 22 G 35 16.09 Fair CLR 24.4 11.1 43% 26 75.77 1009.5
09 12:53 W 24 16.09 Fair CLR 23.9 11.1 23.9 12.2 45% 25 75.79 1009.8
09 11:53 W 15 16.09 Fair CLR 22.8 13.3 55% 75.84 1010.3
09 10:53 W 17 16.09 Fair CLR 20.6 13.9 66% 75.84 1010.5
09 09:53 W 15 16.09 Fair CLR 15.6 13.9 90% 75.82 1010.4
09 08:53 SW 13 16.09 Fair CLR 14.4 13.3 93% 75.79 1010.1
09 07:53 SW 11 1.61 Fog/Mist OVC002 12.8 12.8 100% 75.77 1009.7
09 06:53 SW 13 3.22 Fog/Mist OVC002 12.2 12.2 12.8 12.2 100% 75.72 1009.2
09 05:53 W 19 4.83 Fog/Mist OVC002 12.2 12.2 100% 75.74 1009.1
09 04:53 SW 19 6.44 Fog/Mist OVC002 12.8 12.8 100% 75.72 1008.8
09 03:53 SW 17 0.80 Fog VV002 12.8 12.8 100% 75.72 1008.8
09 02:53 SW 11 0.40 Fog VV002 12.8 12.8 100% 75.67 1008.3
09 01:53 SW 13 0.40 Fog VV001 12.8 12.8 100% 75.69 1008.6
09 00:53 SE 6 0.40 Fog VV001 12.8 12.8 15.6 12.8 100% 75.69 1008.6 1.55
08 23:53 SE 13 11.27 Overcast OVC002 13.3 13.3 100% 75.69 1008.7
08 22:53 Calm 16.09 Overcast BKN003 OVC090 13.3 13.3 100% 75.69 1008.7 0.36
08 21:53 N 13 3.22 Heavy Rain Fog/Mist BKN037 BKN049 OVC075 13.9 13.3 96% 75.74 1009.5 0.84 1.19
08 20:53 N 20 4.83 Heavy Rain Fog/Mist SCT007 BKN036 OVC055 14.4 13.9 97% 75.69 1009.0 0.33
08 19:53 E 9 16.09 Overcast OVC095 15 13.9 93% 75.59 1007.6 0.03
08 18:53 Calm 16.09 Light Rain SCT075 OVC090 15.6 13.9 22.8 15.6 90% 75.62 1007.9 0.15 0.15
08 17:53 NW 7 16.09 Overcast FEW075 OVC100 19.4 13.3 68% 75.67 1008.2
08 16:53 Calm 16.09 Fair CLR 21.7 11.1 51% 75.67 1008.1
08 15:53 SW 7 16.09 Fair CLR 21.7 11.7 53% 75.69 1008.7
08 14:53 S 9 16.09 A Few Clouds FEW120 20.6 12.2 59% 75.74 1009.4
08 13:53 SW 13 16.09 A Few Clouds FEW120 20 11.1 57% 75.82 1010.3
08 12:53 SW 17 16.09 Partly Cloudy SCT120 19.4 10.6 20.6 10 57% 75.84 1010.8
08 11:53 SW 22 16.09 A Few Clouds FEW120 18.3 10 59% 75.92 1011.7
08 10:53 SW 20 16.09 Mostly Cloudy BKN110 16.7 9.4 62% 76 1012.8
08 09:53 S 19 16.09 Partly Cloudy SCT110 13.9 7.8 67% 76.02 1013.4
08 07:53 S 22 16.09 Overcast OVC110 12.8 6.1 64% 75.97 1012.7
08 06:53 S 20 16.09 Fair CLR 11.7 5.6 11.7 8.9 66% 75.97 1012.5
08 05:53 S 19 16.09 Fair CLR 10.6 5 69% 75.95 1012.1
08 04:53 S 20 16.09 Fair CLR 10.6 5 69% 75.97 1012.4
08 03:53 S 20 16.09 Fair CLR 10.6 5 69% 75.97 1012.5
08 02:53 S 15 16.09 Fair CLR 8.9 4.4 74% 7 76 1012.9
08 01:53 S 13 16.09 Fair CLR 8.9 4.4 74% 7 76.05 1013.5
08 00:53 S 13 16.09 Fair CLR 8.9 4.4 16.7 7.8 74% 7 76.07 1014.0
07 23:53 S 13 16.09 Fair CLR 9.4 4.4 71% 8 76.1 1014.3
07 22:53 S 15 16.09 Fair CLR 9.4 4.4 71% 7 76.12 1014.7
07 21:53 S 9 16.09 Fair CLR 9.4 5 74% 8 76.1 1014.6
07 20:53 S 7 16.09 Fair CLR 12.2 4.4 59% 76.07 1014.1
07 19:53 SW 9 16.09 Fair CLR 13.3 4.4 55% 76.02 1013.5
07 18:53 SW 13 16.09 Fair CLR 16.7 3.9 18.9 16.1 43% 76.02 1013.3
07 17:53 SW 11 16.09 Fair CLR 17.8 3.3 38% 76.05 1013.7
07 16:53 SW 22 G 37 16.09 Partly Cloudy SCT075 18.9 3.3 36% 76.07 1014.0
07 15:53 SW 17 16.09 Partly Cloudy SCT070 18.3 3.3 37% 76.1 1014.5
07 14:53 W 20 G 33 16.09 Partly Cloudy SCT075 17.8 2.8 37% 76.17 1015.5
07 13:53 SW 17 G 35 16.09 A Few Clouds FEW070 16.7 2.2 38% 76.2 1016.0
07 12:53 W 19 16.09 Fair CLR 16.7 2.2 16.7 3.9 38% 76.28 1016.7
07 11:53 Calm 16.09 Fair CLR 15.6 2.8 42% 76.3 1017.3
07 10:53 SW 17 G 28 16.09 Fair CLR 14.4 2.8 46% 76.35 1017.9
07 09:53 SW 17 16.09 Fair CLR 12.8 3.9 55% 76.38 1018.3
07 08:53 S 15 16.09 Fair CLR 10 3.9 66% 8 76.4 1018.6
07 07:53 SW 13 16.09 Fair CLR 7.2 3.3 77% 5 76.4 1018.6
Date Time (cdt) Wind (kph) Vis. (km) Weather Sky Cond. Air Dwpt Max. Min. Relative Humidity Wind Chill (°C) Heat Index (°C) altimeter (cm) sea level (mb) 1 hr 3 hr 6 hr
6 hour
Temperature (ºC) Pressure Precipitation (cm)